| time (UTC) | temp C | wind direction | speed KPH | gust KPH | rain 1hr cm | rain 24hr cm | rain mn cm | humidity % | barometer mb |
| 20260504081528 | 20 | 1 | 0.0 | 6.4 | 0.00 | 0.00 | 0.00 | 79 | 1015.1 |
| 20260504050008 | 21 | 356 | 1.6 | 11.3 | 0.00 | 0.08 | 0.00 | 75 | 1016.3 |
| 20260504044510 | 21 | 70 | 6.4 | 17.7 | 0.00 | 0.08 | 0.00 | 75 | 1016.4 |
| 20260504043010 | 21 | 50 | 6.4 | 14.5 | 0.00 | 0.08 | 0.00 | 75 | 1016.2 |
| 20260504041502 | 22 | 75 | 4.8 | 12.9 | 0.00 | 0.08 | 0.00 | 74 | 1016.4 |
| 20260504034600 | 22 | 53 | 1.6 | 8.0 | 0.00 | 0.08 | 0.08 | 71 | 1016.8 |
| 20260504033121 | 22 | 39 | 0.0 | 6.4 | 0.00 | 0.08 | 0.08 | 69 | 1016.7 |
| 20260504031600 | 22 | 29 | 3.2 | 8.0 | 0.00 | 0.08 | 0.08 | 67 | 1016.7 |
| 20260504030115 | 22 | 8 | 6.4 | 11.3 | 0.00 | 0.08 | 0.08 | 67 | 1016.6 |
| 20260504024558 | 22 | 39 | 3.2 | 11.3 | 0.00 | 0.13 | 0.08 | 67 | 1016.6 |
| 20260504023057 | 22 | 20 | 3.2 | 9.7 | 0.00 | 0.13 | 0.08 | 68 | 1016.4 |
| 20260504021557 | 22 | 16 | 4.8 | 9.7 | 0.00 | 0.13 | 0.08 | 68 | 1016.1 |
| 20260504020106 | 22 | 4 | 1.6 | 9.7 | 0.00 | 0.13 | 0.08 | 68 | 1016.1 |
| 20260504014605 | 22 | 36 | 4.8 | 9.7 | 0.00 | 0.25 | 0.08 | 68 | 1015.8 |
| 20260504013057 | 22 | 53 | 6.4 | 12.9 | 0.00 | 0.25 | 0.08 | 69 | 1015.5 |
| 20260504011556 | 22 | 27 | 3.2 | 9.7 | 0.00 | 0.25 | 0.08 | 69 | 1015.5 |
| 20260504010101 | 22 | 57 | 3.2 | 12.9 | 0.00 | 0.25 | 0.08 | 69 | 1015.2 |
| 20260504004555 | 22 | 27 | 4.8 | 12.9 | 0.00 | 0.25 | 0.08 | 68 | 1015.1 |
| 20260504003056 | 22 | 50 | 6.4 | 14.5 | 0.00 | 0.25 | 0.08 | 69 | 1015.0 |
| 20260504001559 | 22 | 13 | 4.8 | 11.3 | 0.00 | 0.25 | 0.08 | 69 | 1014.9 |
| 20260504000059 | 23 | 2 | 4.8 | 14.5 | 0.00 | 0.25 | 0.08 | 69 | 1014.6 |
| 20260503234553 | 23 | 160 | 8.0 | 17.7 | 0.00 | 0.25 | 0.08 | 67 | 1014.6 |
| 20260503233053 | 23 | 8 | 6.4 | 17.7 | 0.00 | 0.25 | 0.08 | 67 | 1014.7 |
| 20260503231551 | 23 | 314 | 6.4 | 12.9 | 0.00 | 0.25 | 0.08 | 67 | 1014.6 |
| 20260503230109 | 24 | 302 | 6.4 | 14.5 | 0.00 | 0.25 | 0.08 | 65 | 1014.6 |
| 20260503224551 | 24 | 307 | 8.0 | 22.5 | 0.00 | 0.25 | 0.08 | 64 | 1014.6 |
| 20260503223108 | 24 | 268 | 4.8 | 17.7 | 0.00 | 0.25 | 0.08 | 64 | 1014.6 |
| 20260503221553 | 25 | 359 | 6.4 | 16.1 | 0.00 | 0.25 | 0.08 | 62 | 1014.5 |
| 20260503220051 | 25 | 311 | 6.4 | 17.7 | 0.00 | 0.25 | 0.08 | 61 | 1014.5 |
| 20260503214556 | 25 | 44 | 6.4 | 16.1 | 0.00 | 0.36 | 0.08 | 61 | 1014.6 |
| 20260503213050 | 25 | 23 | 6.4 | 19.3 | 0.00 | 0.36 | 0.08 | 60 | 1014.5 |
| 20260503211548 | 26 | 23 | 6.4 | 16.1 | 0.00 | 0.36 | 0.08 | 58 | 1014.6 |
| 20260503210047 | 27 | 32 | 3.2 | 9.7 | 0.00 | 0.36 | 0.08 | 49 | 1014.7 |
| 20260503204547 | 27 | 77 | 3.2 | 12.9 | 0.00 | 0.41 | 0.08 | 50 | 1014.8 |
| 20260503203047 | 27 | 77 | 8.0 | 16.1 | 0.00 | 0.41 | 0.08 | 50 | 1014.9 |
| 20260503201549 | 27 | 94 | 3.2 | 17.7 | 0.00 | 0.41 | 0.08 | 52 | 1015.0 |
| 20260503200045 | 27 | 101 | 3.2 | 16.1 | 0.00 | 0.41 | 0.08 | 51 | 1015.3 |
| 20260503194556 | 26 | 53 | 6.4 | 16.1 | 0.00 | 1.88 | 0.08 | 55 | 1015.4 |
| 20260503193043 | 26 | 55 | 3.2 | 14.5 | 0.00 | 1.88 | 0.08 | 55 | 1015.7 |
| 20260503191541 | 26 | 27 | 6.4 | 16.1 | 0.00 | 1.88 | 0.08 | 56 | 1016.0 |
| 20260503190047 | 26 | 11 | 4.8 | 14.5 | 0.00 | 1.88 | 0.08 | 55 | 1016.2 |
| 20260503184542 | 25 | 54 | 11.3 | 20.9 | 0.00 | 1.98 | 0.08 | 59 | 1016.5 |
| 20260503183042 | 25 | 60 | 8.0 | 16.1 | 0.00 | 1.98 | 0.08 | 58 | 1016.7 |
| 20260503181556 | 25 | 32 | 8.0 | 14.5 | 0.00 | 1.98 | 0.08 | 57 | 1016.8 |
| 20260503180046 | 25 | 27 | 8.0 | 16.1 | 0.00 | 1.98 | 0.08 | 60 | 1017.0 |
| 20260503174535 | 25 | 42 | 9.7 | 17.7 | 0.00 | 1.98 | 0.08 | 59 | 1017.1 |
| 20260503173034 | 24 | 45 | 9.7 | 20.9 | 0.00 | 1.98 | 0.08 | 61 | 1017.1 |
| 20260503171531 | 24 | 30 | 4.8 | 19.3 | 0.00 | 1.98 | 0.08 | 62 | 1017.4 |